AirNav   Duncan Aviation - Near you to keep you flying
 
 970 users online  

0LL0 Kaufield Airport
Belvidere, Illinois, USA

GOING TO BELVIDERE?


FAA INFORMATION EFFECTIVE 01 DECEMBER 2022

Location

FAA Identifier: 0LL0
Lat/Long: 42-15-53.0000N 088-43-48.0000W
42-15.883333N 088-43.800000W
42.2647222,-88.7300000
(estimated)
Elevation: 783 ft. / 239 m (estimated)
Variation: 01W (1995)
From city: 5 miles E of BELVIDERE, IL
Time zone: UTC -6 (UTC -5 during Daylight Saving Time)
Zip code: 61038

Airport Operations

Airport use: Private use. Permission required prior to landing
Activation date: 05/1999
Control tower: no
ARTCC: CHICAGO CENTER
FSS: KANKAKEE FLIGHT SERVICE STATION
Attendance: UNATNDD
Wind indicator: yes
Segmented circle: no
Lights: FOR LIRL CALL 815-597-3981.

Airport Communications

WX ASOS at RFD (17 nm W): PHONE 815-484-6229
WX AWOS-3 at DKB (20 nm S): 119.075 (815-748-2350)

Nearby radio navigation aids

VOR radial/distance  VOR name  Freq  Var
JVLr134/24.2JANESVILLE VOR/DME114.3003E
DPAr321/28.1DUPAGE VOR/DME108.4002E
OBKr276/34.7NORTHBROOK VOR/DME113.0002W
PLLr060/39.6POLO VOR/DME111.2003E

Airport Services

Runway Information

Runway 9/27

Dimensions: 2030 x 70 ft. / 619 x 21 m
Surface: turf
Runway edge lights: non-standard
RUNWAY 9  RUNWAY 27
Traffic pattern: leftleft
Obstructions: none25 ft. pline, 600 ft. from runway

Airport Ownership and Management from official FAA records

Ownership: Privately-owned
Owner: JOHN KAUFIELD
7698 GARDEN PRAIRIE ROAD
GARDEN PRAIRIE, IL 61038
Phone 815-597-3981
Manager: JOHN KAUFIELD
7698 GARDEN PRAIRIE ROAD
GARDEN PRAIRIE, IL 61038
Phone 815-597-3981

Airport Operational Statistics

Aircraft based on the field: 1
Single engine airplanes: 1
    

Additional Remarks

RY 09/27 HAS 50 FT POWERLINES 200 FT S OF RY & 60 FT POWERLINES 1800 FT N OF RY. RY 09/27 HAS +25 FT BLDG 500 FT SE OF RY.
FOR CD CTC CHICAGO ARTCC AT 630-906-8921.

Instrument Procedures

There are no published instrument procedures at 0LL0.

Some nearby airports with instrument procedures:

C77 - Poplar Grove Airport (6 nm NW)
KRFD - Chicago/Rockford International Airport (17 nm W)
44C - Beloit Airport (18 nm NW)
10C - Galt Field Airport (18 nm NE)
3CK - Lake in the Hills Airport (18 nm E)
KDKB - De Kalb Taylor Municipal Airport (20 nm S)
 
Loc | Ops | Rwys | IFR | FBO | Links
Com | Nav | Svcs | Stats | Notes
Area around 0LL0 (Kaufield Airport)
 
Road maps at: MapQuest Bing Google
 
Aerial photo
No photo
 
Sectional chart

 
Airport distance calculator
Flying to Kaufield Airport? Find the distance to fly.

From to 0LL0

Sunrise and sunset
Times for 04-Dec-2022
 Local
(UTC-6)
 Zulu
(UTC)
Morning civil twilight06:3712:37
Sunrise07:0813:08
Sunset16:2222:22
Evening civil twilight16:5322:53

Current date and time
Zulu (UTC)  05-Dec-2022 01:06:20
Local (UTC-6)  04-Dec-2022 19:06:20
 
METAR
KRFD 
17nm W 
050054Z 14004KT 10SM CLR M02/M09 A3002 RMK AO2 SLP176 T10171094 $
KDKB 
20nm S 
050055Z AUTO 20010KT 10SM CLR M01/M07 A3002 RMK AO2 T10121070
KJVL 
25nm NW 
050045Z 00000KT 10SM CLR M01/M09 A2999
KRPJ 
27nm SW 
050035Z AUTO 20010KT 10SM CLR M02/M07 A3003 RMK AO2 T10201071 TSNO
KDPA 
30nm SE 
050052Z 20009KT 10SM CLR 01/M09 A3002 RMK AO2 SLP175 T00111089
KBUU 
32nm NE 
050055Z AUTO 00000KT 10SM CLR M03/M09 A2999 RMK AO2 T10291090 PWINO
KARR 
32nm S 
050052Z 18007KT 10SM CLR M01/M08 A3003 RMK AO2 SLP180 T10061083
K06C 
32nm SE 
050055Z AUTO 21008KT 10SM CLR 01/M06 A3002 RMK AO2 T00101060
TAF
KRFD 
17nm W 
042055Z 0421/0518 22009KT P6SM FEW250 FM050200 21008KT P6SM SCT250 WS010/24035KT FM051200 20011G17KT P6SM BKN100
NOTAMs
Click for the latest NOTAMs
NOTAMs are issued by the DoD/FAA and will open in a separate window not controlled by AirNav.

 

 
 

Would you like to see your business listed on this page?

 If your business provides an interesting product or service to pilots, flight crews, aircraft, or users of the Kaufield Airport, you should consider listing it here.  To start the listing process, click on the button below
 
Add a business
 

Other Pages about Kaufield Airport

Update a link
 
Copyright © AirNav, LLC. All rights reserved. Privacy Policy  Contact